Extreme high temperature From: 23-07-2018 05:00 Until: 24-07-2018 01:00 warning for: Extreme high temperature Level: Yellow info button
suomi:
Hellevaroitus: Lähivuorokauden aikana on odotettavissa tukalaa hellettä.

svenska:
Varning för värmebölja: Under det närmaste dygnet är den svåra hettan att vänta.

english:
Heat wave warning: Warm weather is expected during the coming 24 hours. 


Thunder radar more information blitzortung!


Löydät sääaseman tiedot myös:

European Weather Network

Finland Weather Exchange

Weather Underground

AWEKAS



Weather Underground säähistoriasivu

Päivittäin yhteenveto Huhtikuu 20, 2017 Yksiköt:  Metriset    Englantilaiset   Molemmat
« Edellinen Päivä
Seuraava Päivä »
Päivittäin Viikoittain Kuukausittain Vuosittain Mukautettu
  Korkea: Matala: Keskiarvo:
Lämpötila: -17.8 °C -18.8 °C -16.8 °C
Kastepiste: -17.8 °C -21.1 °C -18.4 °C
Kosteus: Humidity % 57 % 81 %
Tuulen nopeus: 0 km/h 2.6 km/h 13.2 km/h
Tuulenpuuska: 0 km/h - -
Tuuli:- - SSW
Ilmanpaine: 0 hPa 33992.1 hPa -
Sade: 63.5 mm    
Historical Graphs
 
 
Taulukkotiedot Huhtikuu 20, 2017
Aika Lämpötila Kastepiste Ilmanpaine Tuuli Tuulen nopeus Tuulenpuuska Kosteus Sademäärä (tunneittain)
-17.8 °C -17.8 °C 0 hPa Calm     Humidity % 0 mm
00:00 -18.3 °C -21.1 °C 34760.7 hPa SW 5.1 km/h 15.6 km/h 69 % 0 mm
00:15 -18.3 °C -21.1 °C 34760.7 hPa SSW 2.6 km/h 15.6 km/h 69 % 0 mm
00:30 -18.3 °C -21 °C 34750.5 hPa SSW 5.1 km/h 15.6 km/h 70 % 0 mm
00:45 -18.4 °C -20.7 °C 34750.5 hPa SSW 5.1 km/h 15.6 km/h 73 % 0 mm
01:00 -18.4 °C -20.4 °C 34750.5 hPa SSW 5.1 km/h 18.2 km/h 76 % 0 mm
01:15 -18.4 °C -20.1 °C 34740.4 hPa SW 7.7 km/h 18.2 km/h 79 % 0 mm
01:30 -18.4 °C -20 °C 34740.4 hPa SSW 5.1 km/h 15.6 km/h 81 % 0 mm
01:45 -18.4 °C -19.8 °C 34726.8 hPa SSW 5.1 km/h 18.2 km/h 83 % 0 mm
02:00 -18.4 °C -19.8 °C 34726.8 hPa South 5.1 km/h 12.9 km/h 84 % 0 mm
02:15 -18.4 °C -19.7 °C 34726.8 hPa SSW 7.7 km/h 18.2 km/h 85 % 0 mm
02:30 -18.4 °C -19.6 °C 34716.7 hPa SSW 7.7 km/h 23.3 km/h 86 % 0 mm
02:45 -18.4 °C -19.6 °C 34703.1 hPa SW 5.1 km/h 15.6 km/h 86 % 0 mm
03:00 -18.4 °C -19.4 °C 34693 hPa SSW 7.7 km/h 23.3 km/h 87 % 0 mm
03:15 -18.4 °C -19.5 °C 34693 hPa SSW 5.1 km/h 20.8 km/h 87 % 0 mm
03:30 -18.4 °C -19.5 °C 34682.8 hPa SSW 7.7 km/h 18.2 km/h 87 % 0 mm
03:45 -18.4 °C -19.5 °C 34682.8 hPa SSW 10.3 km/h 23.3 km/h 87 % 0 mm
04:00 -18.4 °C -19.6 °C 34669.3 hPa SSW 7.7 km/h 23.3 km/h 86 % 0 mm
04:15 -18.4 °C -19.6 °C 34659.1 hPa SSW 7.7 km/h 18.2 km/h 86 % 0 mm
04:30 -18.5 °C -19.6 °C 34659.1 hPa SSW 7.7 km/h 12.9 km/h 86 % 0 mm
04:45 -18.5 °C -19.6 °C 34645.6 hPa SSW 7.7 km/h 18.2 km/h 86 % 0 mm
05:00 -18.6 °C -19.8 °C 34645.6 hPa SSW 5.1 km/h 15.6 km/h 85 % 0 mm
05:15 -18.7 °C -19.9 °C 34625.2 hPa SSW 2.6 km/h 12.9 km/h 85 % 0 mm
05:30 -18.8 °C -19.9 °C 34625.2 hPa South 5.1 km/h 12.9 km/h 86 % 0 mm
05:45 -18.8 °C -20 °C 34611.7 hPa SSW 5.1 km/h 15.6 km/h 85 % 0 mm
06:00 -18.8 °C -20.1 °C 34611.7 hPa SSW 5.1 km/h 18.2 km/h 84 % 0 mm
06:15 -18.7 °C -20 °C 34601.5 hPa SSW 5.1 km/h 20.8 km/h 84 % 0 mm
06:30 -18.6 °C -19.9 °C 34591.4 hPa South 5.1 km/h 18.2 km/h 84 % 0 mm
06:45 -18.4 °C -19.8 °C 34591.4 hPa SSW 7.7 km/h 18.2 km/h 84 % 0 mm
07:00 -18.2 °C -19.5 °C 34577.8 hPa SSW 10.3 km/h 25.9 km/h 84 % 0 mm
07:15 -17.9 °C -19.3 °C 34567.7 hPa SSW 12.9 km/h 25.9 km/h 83 % 0 mm
07:30 -17.8 °C -19.2 °C 34554.1 hPa SSW 12.9 km/h 28.5 km/h 83 % 0 mm
07:45 -17.7 °C -19.1 °C 34554.1 hPa SSW 12.9 km/h 28.5 km/h 83 % 0 mm
08:00 -17.6 °C -19.1 °C 34544 hPa SSW 15.6 km/h 33.6 km/h 82 % 0 mm
08:15 -17.4 °C -19 °C 34533.8 hPa SSW 12.9 km/h 28.5 km/h 82 % 0 mm
08:30 -17.3 °C -18.8 °C 34520.3 hPa SSW 10.3 km/h 25.9 km/h 82 % 0 mm
08:45 -17.1 °C -18.7 °C 34510.1 hPa SSW 15.6 km/h 28.5 km/h 81 % 0 mm
09:00 -16.8 °C -18.6 °C 34510.1 hPa SSW 12.9 km/h 31.1 km/h 80 % 0 mm
09:15 -16.7 °C -18.6 °C 34496.6 hPa SSW 12.9 km/h 33.6 km/h 78 % 0 mm
09:30 -16.5 °C -18.5 °C 34486.4 hPa SSW 18.2 km/h 38.8 km/h 77 % 0 mm
09:45 -16.2 °C -18.4 °C 34476.3 hPa SSW 12.9 km/h 33.6 km/h 75 % 0 mm
10:00 -15.8 °C -18.3 °C 34462.7 hPa South 10.3 km/h 33.6 km/h 73 % 0 mm
10:15 -15.6 °C -18.2 °C 34452.6 hPa SSW 12.9 km/h 31.1 km/h 71 % 0 mm
10:30 -15.4 °C -18.3 °C 34442.4 hPa South 15.6 km/h 38.8 km/h 69 % 0 mm
10:45 -15.1 °C -18.1 °C 34428.8 hPa SSW 15.6 km/h 31.1 km/h 68 % 0 mm
11:00 -14.9 °C -18.1 °C 34418.7 hPa SSW 15.6 km/h 33.6 km/h 66 % 0 mm
11:15 -14.6 °C -18.2 °C 34405.1 hPa SSW 20.8 km/h 44.1 km/h 63 % 0 mm
11:30 -14.4 °C -18.2 °C 34405.1 hPa SSW 23.3 km/h 59.5 km/h 62 % 0 mm
11:45 -14.3 °C -18.2 °C 34395 hPa SSW 25.9 km/h 59.5 km/h 61 % 0 mm
12:00 -14.3 °C -18.2 °C 34384.8 hPa SSW 23.3 km/h 59.5 km/h 61 % 0 mm
12:15 -14.2 °C -18.1 °C 34371.3 hPa SSW 25.9 km/h 57 km/h 61 % 0 mm
12:30 -14.1 °C -18.2 °C 34371.3 hPa SSW 23.3 km/h 46.7 km/h 59 % 0 mm
12:45 -14.2 °C -18.2 °C 34361.1 hPa SSW 25.9 km/h 62.1 km/h 60 % 0 mm
13:00 -14.3 °C -18.3 °C 34347.6 hPa SSW 25.9 km/h 64.7 km/h 60 % 0 mm
13:15 -14.3 °C -18.2 °C 34337.4 hPa SSW 25.9 km/h 64.7 km/h 61 % 0 mm
13:30 -14.3 °C -18.6 °C 34327.3 hPa SSW 28.5 km/h 62.1 km/h 58 % 0 mm
13:45 -14.3 °C -18.5 °C 34313.7 hPa SSW 20.8 km/h 57 km/h 59 % 0 mm
14:00 -14.4 °C -18.7 °C 34313.7 hPa SSW 25.9 km/h 64.7 km/h 58 % 0 mm
14:15 -14.4 °C -18.7 °C 34303.6 hPa SSW 23.3 km/h 46.7 km/h 58 % 0 mm
14:30 -14.4 °C -18.7 °C 34303.6 hPa SSW 23.3 km/h 49.2 km/h 58 % 0 mm
14:45 -14.4 °C -18.8 °C 34303.6 hPa SSW 23.3 km/h 46.7 km/h 57 % 0 mm
15:00 -14.6 °C -18.4 °C 34293.4 hPa SSW 25.9 km/h 62.1 km/h 62 % 0 mm
15:15 -15.3 °C -17.6 °C 34293.4 hPa SSW 28.5 km/h 62.1 km/h 75 % 0 mm
15:30 -15.7 °C -17.6 °C 34293.4 hPa SSW 20.8 km/h 57 km/h 79 % 0 mm
15:45 -16.1 °C -17.4 °C 34279.9 hPa SSW 23.3 km/h 57 km/h 85 % 7.62 mm
16:00 -16.3 °C -17.2 °C 34269.7 hPa SW 18.2 km/h 41.4 km/h 89 % 7.62 mm
16:15 -16.6 °C -17.3 °C 34256.2 hPa SSW 15.6 km/h 36.2 km/h 91 % 12.7 mm
16:30 -16.7 °C -17.3 °C 34235.8 hPa SSW 15.6 km/h 36.2 km/h 92 % 20.32 mm
16:45 -16.9 °C -17.5 °C 34222.3 hPa SSW 18.2 km/h 38.8 km/h 93 % 20.32 mm
17:00 -17 °C -17.4 °C 34198.6 hPa SSW 15.6 km/h 38.8 km/h 94 % 25.4 mm
17:15 -17.1 °C -17.5 °C 34188.4 hPa SSW 15.6 km/h 38.8 km/h 94 % 20.32 mm
17:30 -17.1 °C -17.5 °C 34178.3 hPa SSW 18.2 km/h 41.4 km/h 94 % 20.32 mm
17:45 -17.1 °C -17.4 °C 34164.7 hPa SSW 18.2 km/h 33.6 km/h 95 % 20.32 mm
18:00 -17.1 °C -17.4 °C 34154.6 hPa SSW 15.6 km/h 31.1 km/h 95 % 12.7 mm
18:15 -17 °C -17.4 °C 34144.4 hPa SSW 18.2 km/h 41.4 km/h 95 % 12.7 mm
18:30 -16.9 °C -17.3 °C 34130.9 hPa SSW 18.2 km/h 33.6 km/h 95 % 12.7 mm
18:45 -16.9 °C -17.3 °C 34130.9 hPa SSW 18.2 km/h 36.2 km/h 95 % 12.7 mm
19:00 -16.9 °C -17.3 °C 34120.7 hPa SSW 15.6 km/h 38.8 km/h 95 % 12.7 mm
19:15 -16.8 °C -17.2 °C 34107.2 hPa SSW 15.6 km/h 33.6 km/h 95 % 12.7 mm
19:30 -16.8 °C -17.2 °C 34107.2 hPa SSW 18.2 km/h 38.8 km/h 95 % 12.7 mm
19:45 -16.8 °C -17.2 °C 34097 hPa SSW 18.2 km/h 46.7 km/h 95 % 12.7 mm
20:00 -16.8 °C -17.2 °C 34097 hPa SSW 15.6 km/h 38.8 km/h 95 % 7.62 mm
20:15 -16.7 °C -17.1 °C 34086.9 hPa SSW 12.9 km/h 28.5 km/h 95 % 0 mm
20:30 -16.7 °C -17.1 °C 34073.3 hPa SSW 12.9 km/h 25.9 km/h 95 % 0 mm
20:45 -16.6 °C -17 °C 34073.3 hPa SSW 10.3 km/h 31.1 km/h 95 % 0 mm
21:00 -16.6 °C -16.9 °C 34073.3 hPa SSW 10.3 km/h 25.9 km/h 96 % 0 mm
21:15 -16.5 °C -16.8 °C 34063.2 hPa SSW 10.3 km/h 25.9 km/h 96 % 0 mm
21:30 -16.5 °C -16.8 °C 34049.6 hPa SSW 2.6 km/h 15.6 km/h 96 % 0 mm
21:45 -16.5 °C -16.8 °C 34039.5 hPa SSW 7.7 km/h 15.6 km/h 96 % 0 mm
22:00 -16.4 °C -16.7 °C 34029.3 hPa SSW 7.7 km/h 18.2 km/h 96 % 0 mm
22:15 -16.3 °C -16.6 °C 34029.3 hPa SSW 5.1 km/h 18.2 km/h 96 % 0 mm
22:30 -16.3 °C -16.6 °C 34015.8 hPa SSW 5.1 km/h 15.6 km/h 96 % 0 mm
22:45 -16.3 °C -16.6 °C 34015.8 hPa SSW 7.7 km/h 20.8 km/h 96 % 0 mm
23:00 -16.3 °C -16.8 °C 34005.6 hPa SSW 10.3 km/h 23.3 km/h 95 % 0 mm
23:15 -16.5 °C -16.9 °C 34005.6 hPa SSW 7.7 km/h 15.6 km/h 95 % 0 mm
23:30 -16.6 °C -17.1 °C 33992.1 hPa SSW 7.7 km/h 18.2 km/h 95 % 0 mm
23:45 -16.8 °C -17.2 °C 33992.1 hPa SW 5.1 km/h 15.6 km/h 95 % 0 mm
Esan sääasema
Terveisin Weather Underground - 2.75 mb

Alkuperäinen skripti  Jim McMurry - jmcmurry@mwt.net Sovitettu myös templatelle  Wim van der Kuil - Leuven-Template.eu

Laitteet joita käytämme:

Sääasema
Davis VP2

Sääasemaohjelma
Cumulus

Sääaseman tietokone
Asus EeePC

Palveluntarjoaja
Suncomet

Davis VP2

Cumulus

Asus EeePC

Suncomet